Time;durP1;ratioP1;P1;durP2;ratioP2;P2;SDS_P1;SDS_P2;PMS_P1;PMS_P2;Temp;Humidity;BMP_temperature;BMP_pressure;BME280_temperature;BME280_humidity;BME280_pressure;Samples;Min_cycle;Max_cycle;Signal;HPM_P1;HPM_P2
2023/09/24 00:01:58;;;;;;;;;;;;;;;13.13;72.31;101634.00;4105404;28;20025;-71
2023/09/24 00:04:00;;;;;;;;;;;;;;;13.10;72.70;101649.75;4106143;28;20453;-72
2023/09/24 00:06:05;;;;;;;;;;;;;;;13.04;72.56;101656.72;4104879;28;20040;-73
2023/09/24 00:08:10;;;;;;;;;;;;;;;12.95;73.09;101655.03;4105609;28;20374;-71
2023/09/24 00:10:13;;;;;;;;;;;;;;;12.90;73.48;101655.53;4105254;28;20021;-72
2023/09/24 00:12:17;;;;;;;;;;;;;;;12.81;73.78;101656.53;4105580;28;20371;-71
2023/09/24 00:14:19;;;;;;;;;;;;;;;12.76;73.86;101667.91;4105610;28;20365;-72
2023/09/24 00:16:21;;;;;;;;;;;;;;;12.78;73.96;101659.59;4105766;28;19937;-71
2023/09/24 00:18:23;;;;;;;;;;;;;;;12.75;73.75;101674.31;4105926;28;20017;-71
2023/09/24 00:20:26;;;;;;;;;;;;;;;12.77;73.75;101674.16;4104422;28;20460;-71
2023/09/24 00:22:28;;;;;;;;;;;;;;;12.76;73.83;101672.47;4104656;28;20022;-71
2023/09/24 00:24:30;;;;;;;;;;;;;;;12.78;73.99;101673.97;4104853;28;20038;-72
2023/09/24 00:26:32;;;;;;;;;;;;;;;12.73;73.77;101675.53;4105866;28;20017;-71
2023/09/24 00:28:34;;;;;;;;;;;;;;;12.75;73.87;101677.03;4104981;28;20029;-72
2023/09/24 00:30:36;;;;;;;;;;;;;;;12.74;73.80;101679.91;4099511;28;19927;-71
2023/09/24 00:32:39;;;;;;;;;;;;;;;12.74;73.66;101683.50;4110221;28;20041;-71
2023/09/24 00:34:47;;;;;;;;;;;;;;;12.73;73.71;101686.38;4102431;28;19930;-72
2023/09/24 00:36:50;;;;;;;;;;;;;;;12.66;74.23;101686.16;4110632;28;20013;-73
2023/09/24 00:38:52;;;;;;;;;;;;;;;12.61;74.34;101683.97;4110874;28;20029;-71
2023/09/24 00:40:53;;;;;;;;;;;;;;;12.58;74.34;101681.59;4116624;28;20013;-71
2023/09/24 00:42:55;;;;;;;;;;;;;;;12.50;74.64;101687.00;4110500;28;20037;-71
2023/09/24 00:44:57;;;;;;;;;;;;;;;12.44;74.78;101688.53;4110720;28;20367;-70
2023/09/24 00:46:59;;;;;;;;;;;;;;;12.30;75.67;101688.31;4110348;28;20029;-71
2023/09/24 00:49:02;;;;;;;;;;;;;;;12.26;75.90;101685.09;4101702;28;20492;-71
2023/09/24 00:51:07;;;;;;;;;;;;;;;12.20;76.50;101694.72;4108831;28;20398;-72
2023/09/24 00:53:08;;;;;;;;;;;;;;;12.14;76.45;101695.38;4109292;28;20017;-73
2023/09/24 00:55:13;;;;;;;;;;;;;;;12.19;76.21;101695.72;4101359;28;20329;-71
2023/09/24 00:57:16;;;;;;;;;;;;;;;12.18;76.26;101696.75;4110372;28;19933;-72
2023/09/24 00:59:18;;;;;;;;;;;;;;;12.19;75.95;101700.28;4124835;28;20028;-72
2023/09/24 01:01:21;;;;;;;;;;;;;;;12.18;76.31;101702.16;4124724;28;20563;-70
2023/09/24 01:03:24;;;;;;;;;;;;;;;12.13;76.38;101695.53;4110126;28;20016;-70
2023/09/24 01:05:27;;;;;;;;;;;;;;;12.04;77.14;101703.63;4105935;28;20469;-71
2023/09/24 01:07:30;;;;;;;;;;;;;;;12.01;nan;101701.25;4116689;28;20057;-70
2023/09/24 01:09:32;;;;;;;;;;;;;;;11.99;77.11;101705.13;4108018;28;19981;-71
2023/09/24 01:11:34;;;;;;;;;;;;;;;11.89;77.83;101703.34;4108460;28;20072;-71
2023/09/24 01:13:36;;;;;;;;;;;;;;;11.92;77.25;101712.19;4124793;28;20432;-71
2023/09/24 01:15:38;;;;;;;;;;;;;;;11.92;77.51;101714.88;4108779;28;20020;-72
2023/09/24 01:17:40;;;;;;;;;;;;;;;11.97;76.89;101723.38;4109470;28;20021;-71
2023/09/24 01:19:42;;;;;;;;;;;;;;;11.99;76.90;101724.94;4100889;28;20014;-70
2023/09/24 01:21:46;;;;;;;;;;;;;;;12.02;76.91;101723.75;4110308;28;20013;-71
2023/09/24 01:23:49;;;;;;;;;;;;;;;11.94;77.30;101735.38;4109965;28;20025;-72
2023/09/24 01:25:51;;;;;;;;;;;;;;;11.96;77.26;101736.09;4100823;28;20045;-71
2023/09/24 01:27:53;;;;;;;;;;;;;;;11.88;78.00;101733.28;4116948;28;20025;-71
2023/09/24 01:29:56;;;;;;;;;;;;;;;11.86;77.65;101749.69;4110171;28;19961;-70
2023/09/24 01:31:59;;;;;;;;;;;;;;;11.86;77.91;101741.56;4077778;29;19931;-71
2023/09/24 01:34:04;;;;;;;;;;;;;;;11.85;77.66;101742.59;4124865;28;20009;-72
2023/09/24 01:36:10;;;;;;;;;;;;;;;11.84;77.70;101743.59;4125619;28;19927;-71
2023/09/24 01:38:12;;;;;;;;;;;;;;;11.83;77.76;101752.75;4124782;28;19933;-71
2023/09/24 01:40:19;;;;;;;;;;;;;;;11.83;77.47;101751.88;4124197;28;20018;-71
2023/09/24 01:42:21;;;;;;;;;;;;;;;11.74;78.46;101753.72;4106299;28;20021;-70
2023/09/24 01:44:24;;;;;;;;;;;;;;;11.68;78.58;101752.47;4108038;28;20460;-72
2023/09/24 01:46:27;;;;;;;;;;;;;;;11.65;79.00;101752.78;4098607;28;20365;-71
2023/09/24 01:48:29;;;;;;;;;;;;;;;11.57;79.28;101752.75;4114289;28;20081;-72
2023/09/24 01:50:33;;;;;;;;;;;;;;;11.61;79.05;101755.97;4107013;28;20025;-71
2023/09/24 01:52:36;;;;;;;;;;;;;;;11.59;79.13;101760.72;4107182;28;20476;-72
2023/09/24 01:54:38;;;;;;;;;;;;;;;11.59;79.03;101758.00;4107416;28;20013;-71
2023/09/24 01:56:42;;;;;;;;;;;;;;;11.55;79.23;101762.84;4107535;28;20021;-71
2023/09/24 01:58:44;;;;;;;;;;;;;;;11.54;79.17;101772.00;4105567;28;19927;-71
2023/09/24 02:00:48;;;;;;;;;;;;;;;11.56;79.13;101769.13;4097846;28;20016;-72
2023/09/24 02:02:49;;;;;;;;;;;;;;;11.55;78.97;101776.38;4106310;28;20032;-73
2023/09/24 02:04:51;;;;;;;;;;;;;;;11.55;79.57;101776.38;4106772;28;20024;-70
2023/09/24 02:06:53;;;;;;;;;;;;;;;11.57;79.06;101782.50;4106301;28;20037;-72
2023/09/24 02:08:55;;;;;;;;;;;;;;;11.54;79.76;101786.38;4108088;28;20469;-71
2023/09/24 02:10:57;;;;;;;;;;;;;;;11.53;80.20;101791.94;4104434;28;20465;-71
2023/09/24 02:13:01;;;;;;;;;;;;;;;11.56;80.15;101785.38;4106895;28;20041;-71
2023/09/24 02:15:10;;;;;;;;;;;;;;;11.52;80.71;101792.97;4106654;28;20013;-71
2023/09/24 02:17:12;;;;;;;;;;;;;;;11.49;81.37;101794.13;4106846;28;20437;-71
2023/09/24 02:19:14;;;;;;;;;;;;;;;11.57;80.35;101790.63;4089895;29;19931;-72
2023/09/24 02:21:18;;;;;;;;;;;;;;;11.59;80.34;101790.47;4106141;28;20164;-73
2023/09/24 02:23:20;;;;;;;;;;;;;;;11.59;80.50;101793.19;4107074;28;20527;-71
2023/09/24 02:25:23;;;;;;;;;;;;;;;11.61;80.10;101792.00;4107040;28;20041;-71
2023/09/24 02:27:25;;;;;;;;;;;;;;;11.65;79.57;101800.66;4098186;28;20036;-72
2023/09/24 02:29:28;;;;;;;;;;;;;;;11.61;80.03;101800.09;4105846;28;20453;-72
2023/09/24 02:31:32;;;;;;;;;;;;;;;11.62;80.20;101800.97;4106001;28;20022;-71
2023/09/24 02:33:34;;;;;;;;;;;;;;;11.65;79.85;101801.50;4106429;28;20041;-72
2023/09/24 02:35:36;;;;;;;;;;;;;;;11.66;79.40;101805.03;4097261;28;20034;-72
2023/09/24 02:37:37;;;;;;;;;;;;;;;11.60;79.95;101800.25;4121632;28;19976;-70
2023/09/24 02:39:39;;;;;;;;;;;;;;;11.61;79.17;101797.41;4104898;28;19926;-71
2023/09/24 02:41:41;;;;;;;;;;;;;;;11.65;79.18;101797.97;4121022;28;20012;-73
2023/09/24 02:43:44;;;;;;;;;;;;;;;11.66;78.76;101805.03;4106787;28;20052;-72
2023/09/24 02:45:48;;;;;;;;;;;;;;;11.62;79.44;101804.53;4105186;28;20036;-71
2023/09/24 02:47:51;;;;;;;;;;;;;;;11.63;78.91;101811.66;4104512;28;20475;-71
2023/09/24 02:49:53;;;;;;;;;;;;;;;11.62;78.78;101812.63;4096849;28;20021;-71
2023/09/24 02:51:55;;;;;;;;;;;;;;;11.64;78.61;101810.63;4106734;28;20408;-71
2023/09/24 02:53:57;;;;;;;;;;;;;;;11.67;78.64;101807.59;4104841;28;20517;-71
2023/09/24 02:56:00;;;;;;;;;;;;;;;11.71;78.42;101814.41;4105503;28;20029;-71
2023/09/24 02:58:03;;;;;;;;;;;;;;;11.73;78.31;101825.06;4105306;28;20021;-72
2023/09/24 03:00:12;;;;;;;;;;;;;;;11.73;77.93;101820.50;4103841;28;20076;-75
2023/09/24 03:02:16;;;;;;;;;;;;;;;11.74;77.78;101824.06;4119404;28;20483;-71
2023/09/24 03:04:17;;;;;;;;;;;;;;;11.70;78.00;101823.53;4104920;28;20024;-71
2023/09/24 03:06:20;;;;;;;;;;;;;;;11.68;77.97;101824.69;4106098;28;20468;-71
2023/09/24 03:08:23;;;;;;;;;;;;;;;11.69;78.06;101826.38;4102794;28;20021;-71
2023/09/24 03:10:25;;;;;;;;;;;;;;;11.66;77.86;101824.84;4096459;28;20033;-71
2023/09/24 03:12:26;;;;;;;;;;;;;;;11.60;78.65;101840.84;4106139;28;20369;-71
2023/09/24 03:14:28;;;;;;;;;;;;;;;11.61;78.23;101838.00;4105068;28;20029;-73
2023/09/24 03:16:30;;;;;;;;;;;;;;;11.52;79.41;101837.09;4096546;28;20025;-73
2023/09/24 03:18:34;;;;;;;;;;;;;;;11.44;79.82;101842.44;4106499;28;20087;-72
2023/09/24 03:20:36;;;;;;;;;;;;;;;11.39;79.94;101844.75;4105241;28;19972;-71
2023/09/24 03:22:39;;;;;;;;;;;;;;;11.44;79.29;101850.56;4095922;28;20029;-71
2023/09/24 03:24:42;;;;;;;;;;;;;;;11.48;79.32;101841.09;4106097;28;20026;-71
2023/09/24 03:26:44;;;;;;;;;;;;;;;11.46;80.02;101845.81;4106342;28;20022;-70
2023/09/24 03:28:47;;;;;;;;;;;;;;;11.43;80.24;101853.41;4106259;28;20532;-73
2023/09/24 03:30:51;;;;;;;;;;;;;;;11.45;79.71;101852.22;4111871;28;20414;-72
2023/09/24 03:32:53;;;;;;;;;;;;;;;11.48;79.79;101851.94;4105062;28;20020;-71
2023/09/24 03:34:56;;;;;;;;;;;;;;;11.48;80.07;101851.09;4106023;28;20025;-71
2023/09/24 03:36:58;;;;;;;;;;;;;;;11.47;80.56;101855.66;4105813;28;20113;-71
2023/09/24 03:39:01;;;;;;;;;;;;;;;11.49;80.71;101850.09;4104363;28;20013;-72
2023/09/24 03:41:03;;;;;;;;;;;;;;;11.51;80.96;101843.50;4096316;29;20026;-72
2023/09/24 03:43:06;;;;;;;;;;;;;;;11.56;80.87;101847.59;4096605;28;20021;-70
2023/09/24 03:45:09;;;;;;;;;;;;;;;11.57;81.84;101849.28;4112500;28;20034;-71
2023/09/24 03:47:11;;;;;;;;;;;;;;;11.59;81.90;101855.41;4105714;28;20046;-75
2023/09/24 03:49:13;;;;;;;;;;;;;;;11.60;82.90;101857.97;4105153;28;20021;-71
2023/09/24 03:51:16;;;;;;;;;;;;;;;11.63;81.58;101873.88;4105043;28;20017;-71
2023/09/24 03:53:18;;;;;;;;;;;;;;;11.67;81.38;101875.25;4105219;28;20333;-71
2023/09/24 03:55:20;;;;;;;;;;;;;;;11.73;80.86;101871.91;4096048;28;20057;-71
2023/09/24 03:57:27;;;;;;;;;;;;;;;11.78;82.00;101882.28;4120526;28;20016;-71
2023/09/24 03:59:29;;;;;;;;;;;;;;;11.81;81.45;101887.38;4104320;28;20508;-71
2023/09/24 04:01:32;;;;;;;;;;;;;;;11.84;81.83;101881.66;4104795;28;20032;-71
2023/09/24 04:03:33;;;;;;;;;;;;;;;11.87;81.57;101885.91;4095892;28;20010;-72
2023/09/24 04:05:35;;;;;;;;;;;;;;;11.89;81.43;101884.72;4096049;28;20054;-71
2023/09/24 04:07:38;;;;;;;;;;;;;;;11.93;80.05;101885.31;4105278;28;20026;-70
2023/09/24 04:09:40;;;;;;;;;;;;;;;11.98;80.72;101891.09;4096144;29;20017;-72
2023/09/24 04:11:42;;;;;;;;;;;;;;;11.99;81.38;101898.22;4104739;28;20024;-73
2023/09/24 04:13:44;;;;;;;;;;;;;;;12.00;81.42;101899.91;4105544;28;20041;-71
2023/09/24 04:15:45;;;;;;;;;;;;;;;12.02;81.63;101899.75;4104734;28;20433;-71
2023/09/24 04:17:48;;;;;;;;;;;;;;;12.04;82.03;101903.16;4105009;28;20017;-71
2023/09/24 04:19:51;;;;;;;;;;;;;;;12.04;81.91;101908.56;4104605;28;20033;-71
2023/09/24 04:21:53;;;;;;;;;;;;;;;12.06;81.87;101901.97;4120296;28;19933;-71
2023/09/24 04:23:57;;;;;;;;;;;;;;;12.11;81.08;101909.63;4105948;28;20025;-70
2023/09/24 04:25:59;;;;;;;;;;;;;;;12.15;82.22;101915.59;4096307;28;20022;-71
2023/09/24 04:28:01;;;;;;;;;;;;;;;12.20;80.90;101929.50;4105038;28;20021;-70
2023/09/24 04:30:05;;;;;;;;;;;;;;;12.21;81.00;101920.34;4103926;28;20025;-72
2023/09/24 04:32:07;;;;;;;;;;;;;;;12.24;81.21;101920.03;4104257;28;20372;-71
2023/09/24 04:34:09;;;;;;;;;;;;;;;12.28;81.00;101929.56;4105429;28;20397;-71
2023/09/24 04:36:11;;;;;;;;;;;;;;;12.30;81.46;101938.34;4105177;28;20048;-71
2023/09/24 04:38:13;;;;;;;;;;;;;;;12.34;80.89;101941.63;4105379;28;20014;-72
2023/09/24 04:40:17;;;;;;;;;;;;;;;12.37;81.10;101944.00;4104805;28;20009;-72
2023/09/24 04:42:19;;;;;;;;;;;;;;;12.41;80.60;101950.78;4104244;28;19930;-75
2023/09/24 04:44:21;;;;;;;;;;;;;;;12.43;80.87;101959.63;4104309;28;20022;-72
2023/09/24 04:46:24;;;;;;;;;;;;;;;12.44;80.79;101964.88;4105309;28;20054;-71
2023/09/24 04:48:26;;;;;;;;;;;;;;;12.43;80.74;101963.19;4104933;28;20013;-70
2023/09/24 04:50:28;;;;;;;;;;;;;;;12.47;80.23;101968.28;4104311;28;20016;-72
2023/09/24 04:52:30;;;;;;;;;;;;;;;12.47;81.36;101966.41;4104347;28;20029;-71
2023/09/24 04:54:31;;;;;;;;;;;;;;;12.48;81.10;101972.69;4104947;28;20013;-70
2023/09/24 04:56:36;;;;;;;;;;;;;;;12.50;79.96;101978.81;4104907;28;20062;-72
2023/09/24 04:58:39;;;;;;;;;;;;;;;12.53;79.68;101983.91;4105365;28;20029;-70
2023/09/24 05:00:39;;;;;;;;;;;;;;;12.55;79.56;101981.88;4104167;28;20006;-71
2023/09/24 05:02:41;;;;;;;;;;;;;;;12.58;79.29;101987.81;4104096;28;19950;-71
2023/09/24 05:04:43;;;;;;;;;;;;;;;12.59;80.33;101988.69;4105353;28;20030;-72
2023/09/24 05:06:45;;;;;;;;;;;;;;;12.59;79.77;101992.22;4104939;28;20029;-72
2023/09/24 05:08:48;;;;;;;;;;;;;;;12.58;80.94;102001.38;4104981;28;20587;-72
2023/09/24 05:10:50;;;;;;;;;;;;;;;12.60;79.86;101999.38;4104012;28;20373;-71
2023/09/24 05:12:53;;;;;;;;;;;;;;;12.62;80.10;102001.91;4103767;28;20029;-72
2023/09/24 05:14:55;;;;;;;;;;;;;;;12.62;81.07;102005.47;4103167;28;20020;-71
2023/09/24 05:16:57;;;;;;;;;;;;;;;12.67;79.75;102006.88;4106736;28;20024;-71
2023/09/24 05:19:02;;;;;;;;;;;;;;;12.70;79.27;102011.97;4107747;28;20025;-71
2023/09/24 05:21:06;;;;;;;;;;;;;;;12.73;79.03;102017.06;4107496;28;20448;-72
2023/09/24 05:23:08;;;;;;;;;;;;;;;12.75;78.99;102024.00;4106836;28;19926;-70
2023/09/24 05:25:10;;;;;;;;;;;;;;;12.77;79.32;102021.13;4107809;28;20417;-70
2023/09/24 05:27:11;;;;;;;;;;;;;;;12.78;80.21;102028.28;4107579;28;20046;-71
2023/09/24 05:29:14;;;;;;;;;;;;;;;12.79;79.33;102014.56;4107530;28;20033;-71
2023/09/24 05:31:16;;;;;;;;;;;;;;;12.83;78.72;102028.63;4106706;28;20024;-71
2023/09/24 05:33:18;;;;;;;;;;;;;;;12.85;78.62;102029.31;4107648;28;20013;-73
2023/09/24 05:35:20;;;;;;;;;;;;;;;12.88;78.89;102039.00;4107807;28;20034;-73
2023/09/24 05:37:22;;;;;;;;;;;;;;;12.88;79.55;102039.84;4107510;28;20009;-71
2023/09/24 05:39:24;;;;;;;;;;;;;;;12.90;79.03;102042.38;4106954;28;20013;-71
2023/09/24 05:41:27;;;;;;;;;;;;;;;12.92;78.78;102057.50;4106678;28;20520;-70
2023/09/24 05:43:29;;;;;;;;;;;;;;;12.94;80.28;102054.63;4107764;28;19989;-74
2023/09/24 05:45:32;;;;;;;;;;;;;;;12.94;79.01;102060.88;4107231;28;20025;-72
2023/09/24 05:47:37;;;;;;;;;;;;;;;12.96;79.61;102068.88;4107127;28;20030;-71
2023/09/24 05:49:39;;;;;;;;;;;;;;;12.97;79.71;102065.16;4107670;28;20045;-71
2023/09/24 05:51:42;;;;;;;;;;;;;;;12.98;81.53;102072.28;4106568;28;20036;-71
2023/09/24 05:53:44;;;;;;;;;;;;;;;12.98;80.61;102083.13;4107235;28;20029;-72
2023/09/24 05:55:52;;;;;;;;;;;;;;;12.98;79.91;102083.97;4106964;28;20033;-72
2023/09/24 05:57:54;;;;;;;;;;;;;;;12.99;79.58;102084.81;4107607;28;20041;-71
2023/09/24 05:59:56;;;;;;;;;;;;;;;13.01;79.22;102087.38;4106806;28;20207;-72
2023/09/24 06:01:59;;;;;;;;;;;;;;;13.02;79.19;102083.66;4106730;28;20057;-71
2023/09/24 06:04:01;;;;;;;;;;;;;;;13.05;79.29;102089.59;4107332;28;20448;-72
2023/09/24 06:06:04;;;;;;;;;;;;;;;13.07;79.53;102090.31;4105689;28;20017;-71
2023/09/24 06:08:05;;;;;;;;;;;;;;;13.07;80.94;102087.59;4106917;28;20017;-72
2023/09/24 06:10:10;;;;;;;;;;;;;;;13.08;80.46;102093.88;4121284;28;20072;-72
2023/09/24 06:12:11;;;;;;;;;;;;;;;13.08;80.42;102096.59;4106697;28;20033;-72
2023/09/24 06:14:12;;;;;;;;;;;;;;;13.09;80.58;102107.28;4106904;28;20033;-74
2023/09/24 06:16:14;;;;;;;;;;;;;;;13.11;79.25;102101.69;4105250;28;19978;-71
2023/09/24 06:18:18;;;;;;;;;;;;;;;13.13;79.54;102115.94;4106028;28;20012;-72
2023/09/24 06:20:20;;;;;;;;;;;;;;;13.14;81.00;102114.94;4106532;28;20025;-73
2023/09/24 06:22:22;;;;;;;;;;;;;;;13.12;80.54;102115.09;4105505;28;20460;-73
2023/09/24 06:24:24;;;;;;;;;;;;;;;13.14;79.78;102117.63;4107518;28;19926;-73
2023/09/24 06:26:26;;;;;;;;;;;;;;;13.16;79.40;102121.03;4106368;28;20021;-72
2023/09/24 06:28:28;;;;;;;;;;;;;;;13.19;80.08;102119.88;4106853;28;20029;-71
2023/09/24 06:30:30;;;;;;;;;;;;;;;13.19;81.57;102117.16;4105755;28;20020;-71
2023/09/24 06:32:32;;;;;;;;;;;;;;;13.19;79.64;102115.28;4106112;28;20545;-71
2023/09/24 06:34:37;;;;;;;;;;;;;;;13.23;79.83;102118.53;4107320;28;20030;-71
2023/09/24 06:36:39;;;;;;;;;;;;;;;13.23;78.82;102123.94;4105733;28;20016;-69
2023/09/24 06:38:41;;;;;;;;;;;;;;;13.24;79.19;102117.53;4105750;28;20049;-71
2023/09/24 06:40:43;;;;;;;;;;;;;;;13.27;79.13;102130.75;4106161;28;20021;-70
2023/09/24 06:42:45;;;;;;;;;;;;;;;13.27;79.77;102128.06;4105995;28;20018;-72
2023/09/24 06:44:47;;;;;;;;;;;;;;;13.28;79.54;102132.47;4105051;28;20449;-72
2023/09/24 06:46:50;;;;;;;;;;;;;;;13.30;79.51;102128.56;4103359;28;19969;-71
2023/09/24 06:48:51;;;;;;;;;;;;;;;13.33;80.36;102135.59;4106221;28;20365;-72
2023/09/24 06:50:55;;;;;;;;;;;;;;;13.33;80.33;102141.00;4119777;28;20467;-71
2023/09/24 06:52:57;;;;;;;;;;;;;;;13.33;79.19;102138.28;4105528;28;20020;-71
2023/09/24 06:54:59;;;;;;;;;;;;;;;13.36;79.23;102143.41;4104272;28;20029;-71
2023/09/24 06:57:01;;;;;;;;;;;;;;;13.39;80.18;102150.38;4096902;28;20175;-71
2023/09/24 06:59:09;;;;;;;;;;;;;;;13.39;80.37;102145.78;4103032;28;20481;-72
2023/09/24 07:01:11;;;;;;;;;;;;;;;13.41;81.03;102146.47;4102349;28;20030;-71
2023/09/24 07:03:13;;;;;;;;;;;;;;;13.42;81.03;102152.78;4104878;28;20633;-72
2023/09/24 07:05:15;;;;;;;;;;;;;;;13.41;80.78;102162.75;4103159;28;19930;-72
2023/09/24 07:07:18;;;;;;;;;;;;;;;13.43;79.47;102157.16;4103932;28;20025;-73
2023/09/24 07:09:21;;;;;;;;;;;;;;;13.44;80.43;102165.16;4104409;28;20029;-72
2023/09/24 07:11:25;;;;;;;;;;;;;;;13.46;80.20;102167.69;4103710;28;20017;-71
2023/09/24 07:13:29;;;;;;;;;;;;;;;13.47;81.25;102167.53;4103777;28;20025;-70
2023/09/24 07:15:33;;;;;;;;;;;;;;;13.48;80.81;102171.97;4103325;28;20013;-72
2023/09/24 07:17:35;;;;;;;;;;;;;;;13.50;81.09;102174.53;4103017;28;20017;-71
2023/09/24 07:19:37;;;;;;;;;;;;;;;13.52;80.05;102176.03;4086001;29;20622;-71
2023/09/24 07:21:40;;;;;;;;;;;;;;;13.55;79.68;102174.03;4103654;28;20425;-71
2023/09/24 07:23:44;;;;;;;;;;;;;;;13.57;81.36;102174.72;4103617;28;20021;-71
2023/09/24 07:25:46;;;;;;;;;;;;;;;13.58;80.21;102173.72;4103894;28;20417;-70
2023/09/24 07:27:48;;;;;;;;;;;;;;;13.61;79.47;102179.66;4103533;28;20024;-73
2023/09/24 07:29:50;;;;;;;;;;;;;;;13.63;79.26;102180.34;4103082;28;20367;-73
2023/09/24 07:31:54;;;;;;;;;;;;;;;13.66;79.66;102181.91;4102528;28;20054;-73
2023/09/24 07:33:55;;;;;;;;;;;;;;;13.68;79.02;102169.88;4102288;28;20017;-71
2023/09/24 07:35:57;;;;;;;;;;;;;;;13.72;79.58;102174.97;4104254;28;20036;-71
2023/09/24 07:37:59;;;;;;;;;;;;;;;13.75;79.10;102169.22;4102894;28;20365;-71
2023/09/24 07:40:05;;;;;;;;;;;;;;;13.76;79.13;102179.91;4103086;28;20372;-71
2023/09/24 07:42:07;;;;;;;;;;;;;;;13.79;79.07;102179.59;4103664;28;20053;-70
2023/09/24 07:44:09;;;;;;;;;;;;;;;13.80;78.65;102181.28;4103553;28;20050;-70
2023/09/24 07:46:14;;;;;;;;;;;;;;;13.83;78.84;102185.53;4104584;28;20631;-71
2023/09/24 07:48:16;;;;;;;;;;;;;;;13.88;78.71;102194.03;4118145;28;19934;-71
2023/09/24 07:50:18;;;;;;;;;;;;;;;13.89;78.83;102190.31;4103357;28;20025;-72
2023/09/24 07:52:20;;;;;;;;;;;;;;;13.91;78.86;102193.72;4102749;28;20040;-72
2023/09/24 07:54:22;;;;;;;;;;;;;;;13.93;78.14;102199.81;4103096;28;20017;-72
2023/09/24 07:56:25;;;;;;;;;;;;;;;13.96;77.60;102207.66;4104208;28;20025;-72
2023/09/24 07:58:27;;;;;;;;;;;;;;;13.99;77.54;102207.31;4102600;28;20033;-72
2023/09/24 08:00:28;;;;;;;;;;;;;;;14.03;77.41;102211.41;4101808;28;20021;-71
2023/09/24 08:02:30;;;;;;;;;;;;;;;14.06;77.49;102216.53;4101894;28;20033;-71
2023/09/24 08:04:33;;;;;;;;;;;;;;;14.11;77.28;102215.19;4103358;28;20017;-70
2023/09/24 08:06:35;;;;;;;;;;;;;;;14.13;76.70;102214.00;4104073;28;20002;-73
2023/09/24 08:08:36;;;;;;;;;;;;;;;14.18;75.86;102225.22;4102286;28;20017;-72
2023/09/24 08:10:38;;;;;;;;;;;;;;;14.20;76.25;102220.50;4102085;28;20018;-71
2023/09/24 08:12:42;;;;;;;;;;;;;;;14.23;75.61;102231.03;4102254;28;20037;-72
2023/09/24 08:14:45;;;;;;;;;;;;;;;14.24;75.61;102230.00;4103128;28;20021;-73
2023/09/24 08:16:48;;;;;;;;;;;;;;;14.28;75.04;102222.38;4102733;28;20013;-71
2023/09/24 08:18:50;;;;;;;;;;;;;;;14.31;74.58;102222.06;4102651;28;20024;-71
2023/09/24 08:20:54;;;;;;;;;;;;;;;14.35;74.09;102214.41;4102141;28;20021;-71
2023/09/24 08:22:56;;;;;;;;;;;;;;;14.37;74.58;102231.38;4101310;28;20017;-71
2023/09/24 08:24:58;;;;;;;;;;;;;;;14.38;74.22;102238.53;4101736;28;20017;-71
2023/09/24 08:27:00;;;;;;;;;;;;;;;14.40;73.84;102240.09;4102317;28;19944;-71
2023/09/24 08:29:06;;;;;;;;;;;;;;;14.43;73.81;102236.16;4102098;28;19993;-74
2023/09/24 08:31:11;;;;;;;;;;;;;;;14.47;73.85;102239.41;4100573;28;20641;-72
2023/09/24 08:33:13;;;;;;;;;;;;;;;14.54;72.81;102233.13;4101593;28;20364;-75
2023/09/24 08:35:24;;;;;;;;;;;;;;;14.63;71.91;102235.91;4103827;28;20018;-72
2023/09/24 08:37:26;;;;;;;;;;;;;;;14.69;71.47;102241.53;4103792;28;20080;-71
2023/09/24 08:39:28;;;;;;;;;;;;;;;14.75;71.35;102243.56;4103528;28;20364;-72
2023/09/24 08:41:33;;;;;;;;;;;;;;;14.82;70.89;102241.03;4103730;28;20030;-72
2023/09/24 08:43:38;;;;;;;;;;;;;;;14.85;70.93;102240.69;4104656;28;20054;-72
2023/09/24 08:45:55;;;;;;;;;;;;;;;14.89;70.49;102244.78;4104906;28;20013;-72
2023/09/24 08:48:00;;;;;;;;;;;;;;;14.96;70.46;102253.09;4105115;28;19931;-72
2023/09/24 08:50:06;;;;;;;;;;;;;;;15.05;70.42;102256.69;4105975;28;19930;-73
2023/09/24 08:52:19;;;;;;;;;;;;;;;15.12;70.14;102253.13;4105207;28;20507;-70
2023/09/24 08:54:24;;;;;;;;;;;;;;;15.22;69.87;102249.34;4107158;28;20013;-74
2023/09/24 08:56:26;;;;;;;;;;;;;;;15.29;69.55;102251.22;4106001;28;20029;-71
2023/09/24 09:00:44;;;;;;;;;;;;;;;15.44;69.24;102256.84;4102725;28;20056;-70
2023/09/24 09:02:47;;;;;;;;;;;;;;;15.50;69.28;102269.75;4106172;28;19934;-71
2023/09/24 09:04:50;;;;;;;;;;;;;;;15.56;69.09;102265.47;4106004;28;20017;-72
2023/09/24 09:06:55;;;;;;;;;;;;;;;15.61;68.84;102263.13;4105294;28;20035;-71
2023/09/24 09:08:57;;;;;;;;;;;;;;;15.65;68.87;102266.31;4104444;28;19930;-72
2023/09/24 09:11:00;;;;;;;;;;;;;;;15.71;68.55;102264.78;4105786;28;20025;-72
2023/09/24 09:13:04;;;;;;;;;;;;;;;15.75;68.62;102256.09;4105870;28;20021;-71
2023/09/24 09:15:09;;;;;;;;;;;;;;;15.83;68.09;102258.84;4104359;28;20017;-71
2023/09/24 09:17:12;;;;;;;;;;;;;;;15.92;67.90;102262.38;4105304;28;19935;-71
2023/09/24 09:19:14;;;;;;;;;;;;;;;16.00;67.76;102261.50;4105837;28;20009;-71
2023/09/24 09:21:25;;;;;;;;;;;;;;;16.07;67.73;102257.03;4106152;28;20006;-71
2023/09/24 09:23:29;;;;;;;;;;;;;;;16.14;67.46;102254.44;4106493;28;20025;-72
2023/09/24 09:25:32;;;;;;;;;;;;;;;16.18;67.36;102259.38;4105656;28;20664;-69
2023/09/24 09:29:52;;;;;;;;;;;;;;;16.34;66.99;102265.78;4103287;28;20270;-72
2023/09/24 09:31:54;;;;;;;;;;;;;;;16.41;66.74;102255.88;4105969;28;20017;-72
2023/09/24 09:33:58;;;;;;;;;;;;;;;16.48;66.78;102259.56;4105879;28;20021;-71
2023/09/24 09:36:22;;;;;;;;;;;;;;;16.53;66.47;102259.03;4106973;28;20020;-71
2023/09/24 09:38:30;;;;;;;;;;;;;;;16.58;66.16;102254.75;4105360;28;20421;-74
2023/09/24 09:40:34;;;;;;;;;;;;;;;16.60;66.29;102248.22;4083814;28;20416;-72
2023/09/24 09:42:43;;;;;;;;;;;;;;;16.62;65.90;102254.38;4089735;28;19927;-72
2023/09/24 09:44:51;;;;;;;;;;;;;;;16.64;65.95;102247.69;4098005;29;20009;-71
2023/09/24 09:46:53;;;;;;;;;;;;;;;16.64;66.07;102250.44;4106899;28;19930;-71
2023/09/24 09:49:07;;;;;;;;;;;;;;;16.63;66.05;102240.56;4107335;28;20018;-73
2023/09/24 09:51:10;;;;;;;;;;;;;;;16.63;66.26;102245.16;4097554;29;20402;-72
2023/09/24 09:53:13;;;;;;;;;;;;;;;16.62;66.05;102249.75;4120295;28;20422;-74
2023/09/24 09:55:17;;;;;;;;;;;;;;;16.61;66.08;102250.78;4105453;28;20464;-73
2023/09/24 09:57:24;;;;;;;;;;;;;;;16.62;66.15;102252.50;4104751;28;20018;-72
2023/09/24 09:59:26;;;;;;;;;;;;;;;16.62;66.40;102252.50;4104170;28;20901;-73
2023/09/24 10:01:28;;;;;;;;;;;;;;;16.62;66.43;102247.03;4104302;28;20016;-73
2023/09/24 10:03:32;;;;;;;;;;;;;;;16.62;66.55;102252.50;4104494;28;20030;-73
2023/09/24 10:05:34;;;;;;;;;;;;;;;16.63;66.66;102256.06;4113037;28;20311;-72
2023/09/24 10:07:38;;;;;;;;;;;;;;;16.63;66.77;102245.16;4104942;28;20024;-71
2023/09/24 10:09:40;;;;;;;;;;;;;;;16.64;66.63;102255.03;4105568;28;20807;-72
2023/09/24 10:11:57;;;;;;;;;;;;;;;16.64;66.91;102246.84;4111561;28;19930;-72
2023/09/24 10:14:00;;;;;;;;;;;;;;;16.66;66.91;102247.53;4104087;28;19926;-72
2023/09/24 10:16:19;;;;;;;;;;;;;;;16.67;66.82;102252.78;4104322;28;20025;-75
2023/09/24 10:18:25;;;;;;;;;;;;;;;16.70;66.94;102251.59;4104700;28;20013;-71
2023/09/24 10:20:48;;;;;;;;;;;;;;;16.74;66.98;102252.94;4103653;28;20049;-72
2023/09/24 10:22:54;;;;;;;;;;;;;;;16.79;66.95;102255.13;4105077;28;20406;-70
2023/09/24 10:25:21;;;;;;;;;;;;;;;16.84;67.03;102259.00;4090322;28;20029;-72
2023/09/24 10:27:30;;;;;;;;;;;;;;;16.88;66.88;102252.19;4104536;28;20455;-72
2023/09/24 10:29:51;;;;;;;;;;;;;;;16.94;66.92;102258.78;4104622;28;20021;-71
2023/09/24 10:32:13;;;;;;;;;;;;;;;16.99;66.73;102253.63;4114080;28;19934;-71
2023/09/24 10:34:47;;;;;;;;;;;;;;;17.06;66.73;102256.47;4107356;28;20022;-72
2023/09/24 10:36:51;;;;;;;;;;;;;;;17.14;66.69;102250.94;4105438;28;20064;-74
2023/09/24 10:39:05;;;;;;;;;;;;;;;17.20;66.70;102247.47;4105613;28;20001;-72